createdAt,value
2018-12-15T00:01:06.757Z,15.45
2018-12-15T00:03:37.731Z,17.20
2018-12-15T00:06:08.546Z,48.00
2018-12-15T00:08:37.970Z,13.60
2018-12-15T00:11:06.851Z,16.07
2018-12-15T00:13:35.751Z,15.60
2018-12-15T00:16:04.626Z,15.37
2018-12-15T00:18:33.866Z,14.03
2018-12-15T00:21:02.985Z,16.30
2018-12-15T00:23:31.827Z,14.93
2018-12-15T00:26:00.736Z,14.57
2018-12-15T00:28:29.645Z,20.57
2018-12-15T00:30:58.474Z,15.70
2018-12-15T00:33:27.474Z,16.63
2018-12-15T00:35:56.310Z,14.70
2018-12-15T00:38:25.150Z,14.77
2018-12-15T00:40:53.975Z,18.37
2018-12-15T00:43:22.818Z,17.40
2018-12-15T00:45:51.715Z,17.30
2018-12-15T00:48:20.618Z,16.87
2018-12-15T00:50:49.514Z,15.97
2018-12-15T00:53:18.588Z,13.60
2018-12-15T00:55:47.413Z,13.80
2018-12-15T00:58:16.266Z,52.17
2018-12-15T01:00:45.151Z,15.63
2018-12-15T01:03:14.042Z,17.43
2018-12-15T01:05:42.954Z,14.10
2018-12-15T01:08:11.822Z,15.17
2018-12-15T01:10:40.728Z,12.93
2018-12-15T01:13:09.630Z,17.17
2018-12-15T01:15:43.769Z,19.07
2018-12-15T01:18:13.572Z,20.10
2018-12-15T01:20:42.400Z,14.67
2018-12-15T01:23:11.327Z,14.87
2018-12-15T01:25:40.174Z,15.07
2018-12-15T01:28:09.168Z,13.83
2018-12-15T01:30:38.088Z,15.37
2018-12-15T01:33:07.716Z,16.03
2018-12-15T01:35:36.586Z,16.27
2018-12-15T01:38:05.442Z,17.87
2018-12-15T01:40:34.352Z,17.27
2018-12-15T01:43:03.329Z,15.57
2018-12-15T01:45:32.189Z,14.13
2018-12-15T01:48:01.040Z,13.87
2018-12-15T01:50:29.875Z,14.27
2018-12-15T01:52:58.715Z,15.13
2018-12-15T01:55:27.983Z,14.50
2018-12-15T01:57:56.823Z,16.63
2018-12-15T02:00:25.663Z,17.60
2018-12-15T02:02:54.607Z,16.20
2018-12-15T02:05:23.433Z,14.10
2018-12-15T02:07:52.380Z,17.70
2018-12-15T02:10:21.375Z,17.73
2018-12-15T02:12:50.419Z,16.23
2018-12-15T02:15:19.271Z,17.80
2018-12-15T02:17:48.155Z,15.90
2018-12-15T02:20:16.979Z,17.37
2018-12-15T02:22:45.910Z,11.30
2018-12-15T02:25:15.810Z,15.23
2018-12-15T02:27:44.715Z,17.87
2018-12-15T02:30:13.652Z,14.80
2018-12-15T02:32:42.503Z,14.27
2018-12-15T02:35:11.335Z,12.23
2018-12-15T02:37:40.169Z,15.27
2018-12-15T02:40:09.002Z,12.90
2018-12-15T02:42:37.898Z,15.97
2018-12-15T02:45:06.885Z,17.87
2018-12-15T02:47:41.593Z,11.57
2018-12-15T02:50:06.790Z,15.57
2018-12-15T02:52:35.702Z,15.93
2018-12-15T02:55:04.768Z,12.90
2018-12-15T02:57:33.590Z,10.80
2018-12-15T03:00:03.024Z,14.85
2018-12-15T03:02:33.886Z,14.73
2018-12-15T03:05:02.907Z,11.90
2018-12-15T03:07:32.055Z,15.20
2018-12-15T03:10:00.909Z,14.23
2018-12-15T03:12:29.831Z,13.30
2018-12-15T03:14:58.761Z,17.03
2018-12-15T03:17:27.659Z,14.17
2018-12-15T03:20:01.011Z,13.60
2018-12-15T03:22:29.899Z,13.87
2018-12-15T03:24:58.851Z,14.80
2018-12-15T03:27:27.723Z,16.00
2018-12-15T03:30:03.539Z,13.80
2018-12-15T03:32:34.076Z,14.30
2018-12-15T03:35:03.113Z,14.57
2018-12-15T03:37:31.976Z,16.03
2018-12-15T03:40:00.884Z,14.60
2018-12-15T03:42:29.850Z,14.30
2018-12-15T03:44:58.682Z,12.47
2018-12-15T03:47:27.669Z,14.60
2018-12-15T03:49:56.494Z,14.40
2018-12-15T03:52:25.322Z,11.95
2018-12-15T03:54:54.218Z,12.67
2018-12-15T03:57:23.123Z,14.80
2018-12-15T03:59:52.078Z,14.80
2018-12-15T04:02:20.926Z,16.93
2018-12-15T04:04:49.874Z,16.50
2018-12-15T04:07:18.792Z,13.73
2018-12-15T04:09:47.670Z,10.70
2018-12-15T04:12:16.538Z,11.73
2018-12-15T04:14:45.432Z,14.47
2018-12-15T04:17:14.397Z,10.98
2018-12-15T04:19:43.314Z,11.40
2018-12-15T04:22:20.063Z,16.03
2018-12-15T04:24:49.084Z,12.20
2018-12-15T04:27:17.979Z,13.50
2018-12-15T04:29:48.782Z,14.23
2018-12-15T04:32:17.631Z,12.20
2018-12-15T04:34:46.537Z,11.77
2018-12-15T04:37:15.565Z,12.90
2018-12-15T04:39:44.511Z,14.10
2018-12-15T04:42:13.463Z,11.70
2018-12-15T04:44:42.332Z,10.97
2018-12-15T04:47:11.651Z,11.23
2018-12-15T04:49:40.478Z,10.57
2018-12-15T04:52:09.387Z,9.90
2018-12-15T04:54:38.326Z,12.80
2018-12-15T04:57:07.222Z,10.83
2018-12-15T04:59:36.070Z,10.03
2018-12-15T05:02:04.898Z,11.10
2018-12-15T05:04:33.734Z,14.20
2018-12-15T05:07:02.571Z,12.30
2018-12-15T05:09:31.465Z,12.27
2018-12-15T05:12:00.362Z,11.57
2018-12-15T05:14:29.220Z,10.17
2018-12-15T05:16:58.143Z,12.40
2018-12-15T05:19:27.153Z,10.97
2018-12-15T05:21:56.012Z,10.33
2018-12-15T05:24:24.850Z,12.67
2018-12-15T05:26:53.707Z,10.70
2018-12-15T05:29:22.555Z,9.57
2018-12-15T05:31:51.443Z,10.40
2018-12-15T05:34:20.284Z,10.80
2018-12-15T05:36:49.130Z,11.53
2018-12-15T05:39:18.189Z,12.40
2018-12-15T05:41:47.087Z,14.67
2018-12-15T05:44:16.315Z,10.13
2018-12-15T05:46:45.148Z,15.13
2018-12-15T05:49:14.015Z,11.93
2018-12-15T05:51:42.863Z,11.07
2018-12-15T05:54:11.700Z,11.13
2018-12-15T05:56:40.689Z,10.80
2018-12-15T05:59:09.610Z,11.63
2018-12-15T06:01:38.427Z,10.72
2018-12-15T06:04:07.337Z,11.30
2018-12-15T06:06:36.172Z,11.40
2018-12-15T06:09:06.185Z,13.03
2018-12-15T06:11:35.395Z,13.00
2018-12-15T06:14:04.680Z,22.70
2018-12-15T06:16:33.556Z,17.97
2018-12-15T06:19:02.466Z,12.53
2018-12-15T06:21:31.347Z,13.30
2018-12-15T06:24:00.195Z,11.70
2018-12-15T06:26:29.139Z,12.40
2018-12-15T06:28:57.987Z,12.27
2018-12-15T06:31:26.902Z,12.10
2018-12-15T06:33:55.750Z,12.40
2018-12-15T06:36:24.579Z,11.30
2018-12-15T06:38:53.538Z,11.80
2018-12-15T06:41:22.431Z,11.60
2018-12-15T06:43:51.476Z,11.67
2018-12-15T06:46:20.559Z,10.20
2018-12-15T06:48:49.723Z,12.03
2018-12-15T06:51:18.578Z,10.20
2018-12-15T06:53:48.453Z,11.00
2018-12-15T06:56:19.367Z,13.03
2018-12-15T06:58:48.224Z,13.53
2018-12-15T07:01:17.068Z,11.93
2018-12-15T07:03:46.099Z,12.10
2018-12-15T07:06:14.958Z,12.20
2018-12-15T07:08:43.794Z,11.20
2018-12-15T07:11:12.644Z,13.10
2018-12-15T07:13:48.339Z,12.50
2018-12-15T07:16:17.226Z,11.50
2018-12-15T07:18:46.084Z,12.77
2018-12-15T07:21:15.038Z,9.13
2018-12-15T07:23:43.926Z,32.60
2018-12-15T07:26:12.838Z,14.40
2018-12-15T07:28:41.706Z,10.50
2018-12-15T07:31:10.552Z,11.80
2018-12-15T07:33:40.584Z,11.53
2018-12-15T07:36:09.527Z,10.40
2018-12-15T07:38:38.375Z,11.97
2018-12-15T07:41:07.200Z,11.53
2018-12-15T07:43:36.027Z,15.17
2018-12-15T07:46:04.908Z,11.87
2018-12-15T07:48:33.743Z,14.60
2018-12-15T07:51:02.655Z,15.63
2018-12-15T07:53:31.554Z,13.20
2018-12-15T07:56:00.509Z,13.30
2018-12-15T07:58:29.317Z,12.87
2018-12-15T08:00:59.266Z,13.80
2018-12-15T08:03:28.110Z,12.37
2018-12-15T08:05:56.931Z,14.10
2018-12-15T08:08:25.819Z,15.90
2018-12-15T08:11:00.091Z,14.60
2018-12-15T08:13:29.692Z,11.03
2018-12-15T08:15:58.841Z,12.43
2018-12-15T08:18:27.728Z,13.00
2018-12-15T08:20:57.084Z,10.97
2018-12-15T08:23:25.909Z,12.13
2018-12-15T08:25:54.924Z,14.57
2018-12-15T08:28:23.918Z,15.73
2018-12-15T08:30:52.778Z,13.37
2018-12-15T08:33:22.938Z,13.40
2018-12-15T08:35:51.804Z,11.83
2018-12-15T08:38:20.648Z,12.60
2018-12-15T08:40:49.572Z,13.70
2018-12-15T08:43:18.415Z,14.17
2018-12-15T08:45:47.251Z,11.67
2018-12-15T08:48:16.161Z,12.50
2018-12-15T08:50:45.705Z,12.70
2018-12-15T08:53:14.651Z,12.50
2018-12-15T08:55:43.602Z,12.33
2018-12-15T08:58:12.499Z,12.00
2018-12-15T09:00:41.422Z,14.53
2018-12-15T09:03:10.378Z,15.90
2018-12-15T09:05:39.335Z,13.63
2018-12-15T09:08:09.698Z,11.33
2018-12-15T09:10:38.662Z,10.47
2018-12-15T09:13:10.548Z,10.60
2018-12-15T09:15:39.519Z,13.63
2018-12-15T09:18:09.763Z,14.40
2018-12-15T09:20:41.289Z,14.23
2018-12-15T09:23:10.162Z,14.67
2018-12-15T09:25:41.298Z,12.23
2018-12-15T09:28:10.260Z,14.53
2018-12-15T09:30:39.351Z,14.10
2018-12-15T09:33:09.710Z,13.23
2018-12-15T09:35:38.595Z,13.93
2018-12-15T09:38:07.573Z,12.37
2018-12-15T09:40:36.529Z,12.70
2018-12-15T09:43:06.504Z,13.10
2018-12-15T09:45:35.486Z,12.13
2018-12-15T09:48:04.529Z,12.73
2018-12-15T09:50:33.987Z,10.60
2018-12-15T09:53:02.930Z,13.60
2018-12-15T09:55:32.386Z,12.93
2018-12-15T09:58:01.402Z,10.77
2018-12-15T10:00:30.282Z,13.53
2018-12-15T10:02:59.220Z,16.03
2018-12-15T10:05:28.298Z,17.73
2018-12-15T10:07:57.231Z,16.43
2018-12-15T10:10:26.090Z,20.23
2018-12-15T10:12:54.987Z,18.43
2018-12-15T10:15:23.957Z,15.47
2018-12-15T10:17:52.899Z,17.67
2018-12-15T10:20:22.469Z,18.03
2018-12-15T10:22:52.187Z,15.83
2018-12-15T10:25:21.883Z,13.77
2018-12-15T10:27:51.497Z,17.20
2018-12-15T10:30:26.332Z,17.70
2018-12-15T10:32:56.040Z,20.60
2018-12-15T10:35:26.790Z,18.13
2018-12-15T10:37:56.378Z,16.37
2018-12-15T10:40:25.962Z,13.57
2018-12-15T10:42:55.480Z,14.17
2018-12-15T10:45:25.198Z,11.80
2018-12-15T10:47:54.851Z,15.83
2018-12-15T10:50:24.464Z,20.23
2018-12-15T10:52:53.668Z,25.70
2018-12-15T10:55:23.326Z,30.17
2018-12-15T10:57:53.070Z,16.73
2018-12-15T11:00:26.600Z,15.37
2018-12-15T11:02:58.316Z,14.43
2018-12-15T11:05:28.052Z,18.53
2018-12-15T11:07:57.762Z,16.70
2018-12-15T11:10:27.085Z,14.70
2018-12-15T11:12:57.032Z,14.63
2018-12-15T11:15:26.730Z,14.17
2018-12-15T11:17:56.312Z,16.60
2018-12-15T11:20:26.468Z,18.53
2018-12-15T11:22:56.099Z,18.80
2018-12-15T11:25:24.947Z,14.90
2018-12-15T11:27:53.932Z,15.23
2018-12-15T11:30:22.919Z,13.17
2018-12-15T11:32:51.863Z,16.20
2018-12-15T11:35:20.792Z,18.03
2018-12-15T11:37:49.981Z,101.30
2018-12-15T11:40:18.896Z,28.53
2018-12-15T11:42:48.962Z,21.50
2018-12-15T11:45:17.884Z,16.53
2018-12-15T11:47:46.824Z,17.97
2018-12-15T11:50:16.643Z,15.68
2018-12-15T11:52:45.695Z,19.00
2018-12-15T11:55:14.587Z,20.60
2018-12-15T11:57:43.631Z,17.60
2018-12-15T12:00:12.951Z,16.10
2018-12-15T12:02:43.243Z,18.70
2018-12-15T12:05:12.265Z,14.00
2018-12-15T12:07:41.479Z,21.50
2018-12-15T12:10:12.010Z,22.20
2018-12-15T12:12:40.935Z,17.37
2018-12-15T12:15:09.967Z,17.07
2018-12-15T12:17:38.925Z,17.13
2018-12-15T12:20:08.422Z,19.37
2018-12-15T12:22:37.504Z,39.23
2018-12-15T12:25:08.507Z,24.20
2018-12-15T12:27:39.302Z,18.50
2018-12-15T12:30:08.686Z,20.03
2018-12-15T12:32:37.638Z,18.47
2018-12-15T12:35:06.632Z,19.20
2018-12-15T12:37:35.750Z,20.60
2018-12-15T12:40:05.458Z,17.93
2018-12-15T12:42:34.522Z,21.73
2018-12-15T12:45:05.298Z,17.27
2018-12-15T12:47:35.255Z,22.17
2018-12-15T12:50:05.459Z,15.13
2018-12-15T12:52:35.435Z,18.90
2018-12-15T12:55:04.609Z,17.17
2018-12-15T12:57:33.455Z,16.50
2018-12-15T13:00:02.355Z,17.67
2018-12-15T13:02:31.741Z,24.00
2018-12-15T13:05:01.763Z,69.40
2018-12-15T13:07:30.991Z,66.67
2018-12-15T13:09:59.931Z,25.23
2018-12-15T13:12:28.872Z,22.73
2018-12-15T13:14:57.791Z,36.07
2018-12-15T13:17:26.658Z,19.87
2018-12-15T13:19:55.528Z,21.60
2018-12-15T13:22:24.382Z,19.70
2018-12-15T13:24:54.314Z,23.80
2018-12-15T13:27:23.186Z,17.97
2018-12-15T13:29:52.055Z,19.80
2018-12-15T13:32:21.039Z,23.60
2018-12-15T13:34:49.902Z,20.70
2018-12-15T13:37:18.972Z,23.35
2018-12-15T13:39:47.908Z,24.03
2018-12-15T13:42:16.778Z,168.33
2018-12-15T13:44:46.695Z,204.50
2018-12-15T13:47:15.658Z,29.90
2018-12-15T13:49:44.804Z,204.43
2018-12-15T13:52:13.666Z,143.50
2018-12-15T13:54:42.594Z,386.50
2018-12-15T13:57:11.451Z,425.97
2018-12-15T13:59:40.391Z,372.97
2018-12-15T14:02:09.269Z,25.67
2018-12-15T14:04:38.133Z,23.83
2018-12-15T14:07:07.149Z,17.50
2018-12-15T14:09:36.079Z,15.90
2018-12-15T14:12:04.948Z,26.50
2018-12-15T14:14:34.015Z,36.77
2018-12-15T14:17:03.029Z,19.57
2018-12-15T14:19:31.991Z,16.10
2018-12-15T14:22:00.844Z,22.53
2018-12-15T14:24:29.875Z,20.00
2018-12-15T14:26:58.732Z,22.73
2018-12-15T14:29:28.500Z,22.20
2018-12-15T14:31:57.351Z,17.00
2018-12-15T14:34:26.287Z,19.93
2018-12-15T14:36:55.331Z,23.20
2018-12-15T14:39:24.249Z,17.73
2018-12-15T14:41:53.098Z,17.05
2018-12-15T14:44:21.992Z,18.03
2018-12-15T14:46:50.938Z,16.93
2018-12-15T14:49:19.805Z,16.83
2018-12-15T14:51:48.650Z,25.57
2018-12-15T14:54:17.583Z,21.17
2018-12-15T14:56:46.412Z,22.90
2018-12-15T14:59:15.386Z,37.60
2018-12-15T15:01:44.361Z,49.13
2018-12-15T15:04:13.263Z,25.97
2018-12-15T15:06:42.379Z,19.60
2018-12-15T15:09:11.249Z,21.33
2018-12-15T15:11:41.336Z,22.48
2018-12-15T15:14:10.371Z,20.23
2018-12-15T15:16:39.254Z,21.17
2018-12-15T15:19:08.339Z,20.80
2018-12-15T15:21:37.220Z,21.95
2018-12-15T15:24:06.123Z,18.60
2018-12-15T15:26:35.388Z,20.17
2018-12-15T15:29:04.497Z,15.13
2018-12-15T15:31:33.446Z,22.67
2018-12-15T15:34:02.296Z,23.43
2018-12-15T15:36:31.186Z,24.02
2018-12-15T15:39:00.133Z,27.90
2018-12-15T15:41:29.096Z,23.33
2018-12-15T15:43:58.096Z,21.27
2018-12-15T15:46:27.051Z,26.43
2018-12-15T15:48:55.947Z,29.20
2018-12-15T15:51:24.972Z,24.50
2018-12-15T15:53:53.951Z,23.63
2018-12-15T15:56:22.911Z,20.93
2018-12-15T15:58:51.813Z,27.03
2018-12-15T16:01:20.799Z,22.03
2018-12-15T16:03:49.831Z,25.60
2018-12-15T16:06:19.193Z,24.57
2018-12-15T16:08:48.031Z,24.80
2018-12-15T16:11:17.060Z,26.03
2018-12-15T16:13:46.091Z,26.93
2018-12-15T16:16:26.440Z,29.67
2018-12-15T16:18:55.323Z,230.67
2018-12-15T16:21:24.206Z,62.90
2018-12-15T16:23:53.150Z,82.77
2018-12-15T16:26:22.128Z,31.87
2018-12-15T16:28:51.012Z,23.83
2018-12-15T16:31:20.074Z,35.67
2018-12-15T16:33:49.058Z,21.83
2018-12-15T16:36:17.938Z,22.80
2018-12-15T16:38:46.842Z,23.80
2018-12-15T16:41:15.718Z,26.20
2018-12-15T16:43:44.669Z,29.77
2018-12-15T16:46:13.554Z,27.90
2018-12-15T16:48:42.409Z,30.80
2018-12-15T16:51:11.463Z,26.37
2018-12-15T16:53:40.305Z,24.50
2018-12-15T16:56:09.203Z,93.83
2018-12-15T16:58:38.180Z,32.07
2018-12-15T17:01:07.548Z,35.63
2018-12-15T17:03:36.470Z,142.17
2018-12-15T17:06:05.376Z,76.67
2018-12-15T17:08:34.686Z,27.10
2018-12-15T17:11:03.823Z,39.70
2018-12-15T17:13:32.773Z,43.73
2018-12-15T17:16:01.743Z,65.97
2018-12-15T17:18:30.755Z,66.90
2018-12-15T17:20:59.694Z,42.80
2018-12-15T17:23:28.629Z,44.67
2018-12-15T17:25:57.739Z,24.30
2018-12-15T17:28:26.774Z,25.47
2018-12-15T17:30:55.915Z,113.60
2018-12-15T17:33:26.827Z,110.47
2018-12-15T17:35:55.654Z,79.80
2018-12-15T17:38:24.575Z,167.00
2018-12-15T17:40:53.728Z,228.07
2018-12-15T17:43:22.706Z,194.13
2018-12-15T17:45:51.840Z,373.93
2018-12-15T17:48:20.920Z,197.10
2018-12-15T17:50:50.747Z,25.90
2018-12-15T17:53:19.668Z,24.03
2018-12-15T17:55:48.577Z,22.50
2018-12-15T17:58:18.545Z,22.20
2018-12-15T18:00:47.514Z,19.37
2018-12-15T18:03:16.532Z,18.27
2018-12-15T18:05:45.481Z,20.23
2018-12-15T18:08:14.360Z,30.83
2018-12-15T18:10:43.200Z,18.83
2018-12-15T18:13:12.168Z,18.30
2018-12-15T18:15:41.104Z,19.47
2018-12-15T18:18:10.024Z,22.53
2018-12-15T18:20:38.956Z,20.83
2018-12-15T18:23:08.059Z,28.77
2018-12-15T18:25:37.031Z,24.60
2018-12-15T18:28:06.094Z,21.50
2018-12-15T18:30:35.067Z,29.20
2018-12-15T18:33:04.963Z,26.93
2018-12-15T18:35:33.935Z,22.27
2018-12-15T18:38:02.863Z,22.50
2018-12-15T18:40:31.778Z,25.47
2018-12-15T18:43:00.815Z,20.47
2018-12-15T18:45:29.935Z,19.03
2018-12-15T18:47:59.065Z,30.93
2018-12-15T18:50:28.007Z,23.93
2018-12-15T18:52:56.878Z,21.07
2018-12-15T18:55:25.762Z,19.50
2018-12-15T18:57:54.734Z,24.83
2018-12-15T19:00:23.738Z,22.20
2018-12-15T19:02:52.789Z,24.50
2018-12-15T19:05:21.682Z,30.07
2018-12-15T19:07:50.620Z,27.70
2018-12-15T19:10:19.688Z,34.63
2018-12-15T19:12:48.612Z,49.97
2018-12-15T19:15:17.752Z,30.80
2018-12-15T19:17:46.810Z,28.37
2018-12-15T19:20:15.755Z,26.87
2018-12-15T19:22:44.724Z,25.87
2018-12-15T19:25:13.765Z,28.87
2018-12-15T19:27:42.819Z,24.50
2018-12-15T19:30:11.867Z,230.87
2018-12-15T19:32:40.851Z,263.57
2018-12-15T19:35:10.635Z,23.60
2018-12-15T19:37:39.697Z,30.87
2018-12-15T19:40:08.871Z,30.00
2018-12-15T19:42:38.040Z,29.00
2018-12-15T19:45:07.778Z,25.87
2018-12-15T19:47:36.967Z,29.90
2018-12-15T19:50:06.467Z,37.27
2018-12-15T19:52:36.771Z,30.07
2018-12-15T19:55:06.500Z,28.93
2018-12-15T19:57:35.482Z,32.17
2018-12-15T20:00:05.608Z,27.13
2018-12-15T20:02:36.548Z,31.20
2018-12-15T20:05:05.664Z,31.03
2018-12-15T20:07:34.617Z,35.00
2018-12-15T20:10:03.551Z,41.77
2018-12-15T20:12:32.956Z,34.40
2018-12-15T20:15:02.194Z,32.87
2018-12-15T20:17:31.286Z,30.77
2018-12-15T20:20:01.396Z,39.47
2018-12-15T20:22:32.024Z,34.60
2018-12-15T20:25:01.817Z,33.97
2018-12-15T20:27:31.303Z,43.23
2018-12-15T20:30:00.333Z,37.83
2018-12-15T20:32:29.243Z,55.23
2018-12-15T20:34:58.465Z,31.63
2018-12-15T20:37:27.341Z,41.33
2018-12-15T20:39:56.277Z,39.57
2018-12-15T20:42:25.245Z,36.97
2018-12-15T20:44:54.136Z,37.37
2018-12-15T20:47:27.901Z,31.00
2018-12-15T20:49:53.879Z,38.17
2018-12-15T20:52:22.910Z,33.83
2018-12-15T20:54:51.915Z,30.90
2018-12-15T20:57:20.879Z,39.43
2018-12-15T20:59:49.825Z,32.90
2018-12-15T21:02:18.731Z,34.17
2018-12-15T21:04:47.603Z,33.60
2018-12-15T21:07:16.603Z,83.20
2018-12-15T21:09:45.658Z,53.90
2018-12-15T21:12:14.591Z,47.83
2018-12-15T21:14:43.492Z,39.30
2018-12-15T21:17:12.516Z,39.23
2018-12-15T21:19:47.691Z,40.83
2018-12-15T21:22:13.114Z,40.67
2018-12-15T21:24:42.002Z,41.17
2018-12-15T21:27:10.884Z,38.97
2018-12-15T21:29:40.494Z,49.13
2018-12-15T21:32:09.389Z,35.73
2018-12-15T21:34:38.230Z,40.87
2018-12-15T21:37:07.180Z,34.70
2018-12-15T21:39:36.170Z,34.33
2018-12-15T21:42:05.097Z,34.43
2018-12-15T21:44:34.020Z,35.37
2018-12-15T21:47:03.218Z,34.60
2018-12-15T21:49:32.183Z,33.07
2018-12-15T21:52:01.187Z,42.27
2018-12-15T21:54:30.221Z,29.20
2018-12-15T21:56:59.118Z,37.03
2018-12-15T21:59:28.050Z,32.10
2018-12-15T22:01:57.024Z,40.57
2018-12-15T22:04:26.056Z,35.23
2018-12-15T22:06:55.171Z,40.20
2018-12-15T22:09:24.434Z,39.67
2018-12-15T22:11:53.373Z,39.27
2018-12-15T22:14:22.846Z,44.67
2018-12-15T22:16:52.110Z,39.87
2018-12-15T22:19:21.018Z,37.53
2018-12-15T22:21:50.066Z,45.10
2018-12-15T22:24:18.982Z,39.77
2018-12-15T22:26:47.894Z,36.90
2018-12-15T22:29:16.859Z,41.70
2018-12-15T22:31:45.739Z,45.43
2018-12-15T22:34:14.680Z,43.23
2018-12-15T22:36:43.605Z,39.40
2018-12-15T22:39:12.451Z,42.17
2018-12-15T22:41:41.455Z,94.33
2018-12-15T22:44:10.279Z,123.33
2018-12-15T22:46:39.148Z,46.63
2018-12-15T22:49:08.027Z,38.10
2018-12-15T22:51:37.017Z,42.00
2018-12-15T22:54:06.847Z,40.93
2018-12-15T22:56:35.711Z,34.90
2018-12-15T22:59:04.613Z,37.17
2018-12-15T23:01:37.799Z,41.73
2018-12-15T23:04:06.852Z,38.20
2018-12-15T23:06:35.735Z,39.63
2018-12-15T23:09:06.865Z,45.80
2018-12-15T23:11:37.704Z,33.13
2018-12-15T23:14:06.562Z,43.97
2018-12-15T23:16:35.492Z,36.40
2018-12-15T23:19:04.588Z,36.40
2018-12-15T23:21:34.764Z,41.03
2018-12-15T23:24:03.626Z,33.77
2018-12-15T23:26:32.551Z,40.30
2018-12-15T23:29:01.440Z,31.57
2018-12-15T23:31:30.281Z,40.73
2018-12-15T23:33:59.151Z,33.80
2018-12-15T23:36:28.067Z,28.63
2018-12-15T23:38:56.964Z,35.93
2018-12-15T23:41:25.839Z,31.70
2018-12-15T23:43:54.779Z,29.83
2018-12-15T23:46:23.871Z,36.60
2018-12-15T23:48:52.778Z,33.43
2018-12-15T23:51:21.638Z,33.08
2018-12-15T23:53:50.803Z,29.57
2018-12-15T23:56:19.658Z,31.30
2018-12-15T23:58:48.530Z,32.33
